Terminal Aerodrome Forecast
Issued by NWS Albuquerque, NM

Home | Current Version | Previous Version | Text Only | Print | Product List | Glossary On
Versions: 1 2 3 4 5 6 7 8 9 10 11 12 13 14 15
000
FTUS45 KABQ 241728
TAFABQ
TAF
KABQ 241728Z 2418/2518 24007KT P6SM SCT060
     FM242000 27014G22KT P6SM BKN070
     FM242200 34015G25KT P6SM VCTS BKN060CB
     FM250300 33006KT P6SM SCT050
     FM251100 VRB04KT P6SM VCFG FEW006
     FM251400 26006KT P6SM FEW050=

USA.gov is the U.S. government's official web portal to all federal, state and local government web resources and services.